sensor_id;sensor_type;location;lat;lon;timestamp;temperature;humidity
292;DHT22;23311;48.776;9.162;2023-05-08T00:01:51;15.40;95.50
292;DHT22;23311;48.776;9.162;2023-05-08T00:04:19;15.40;95.50
292;DHT22;23311;48.776;9.162;2023-05-08T00:06:49;15.40;95.50
292;DHT22;23311;48.776;9.162;2023-05-08T00:09:17;15.30;95.50
292;DHT22;23311;48.776;9.162;2023-05-08T00:11:45;15.30;95.50
292;DHT22;23311;48.776;9.162;2023-05-08T00:14:13;15.30;95.50
292;DHT22;23311;48.776;9.162;2023-05-08T00:16:41;15.40;95.50
292;DHT22;23311;48.776;9.162;2023-05-08T00:19:09;15.30;95.50
292;DHT22;23311;48.776;9.162;2023-05-08T00:21:37;15.30;95.50
292;DHT22;23311;48.776;9.162;2023-05-08T00:24:07;15.30;95.50
292;DHT22;23311;48.776;9.162;2023-05-08T00:26:35;15.40;95.50
292;DHT22;23311;48.776;9.162;2023-05-08T00:29:03;15.30;95.50
292;DHT22;23311;48.776;9.162;2023-05-08T00:31:32;15.30;95.50
292;DHT22;23311;48.776;9.162;2023-05-08T00:34:00;15.30;95.50
292;DHT22;23311;48.776;9.162;2023-05-08T00:36:28;15.20;95.50
292;DHT22;23311;48.776;9.162;2023-05-08T00:38:58;15.30;95.50
292;DHT22;23311;48.776;9.162;2023-05-08T00:41:27;15.20;95.50
292;DHT22;23311;48.776;9.162;2023-05-08T00:43:55;15.20;95.50
292;DHT22;23311;48.776;9.162;2023-05-08T00:46:23;15.10;95.50
292;DHT22;23311;48.776;9.162;2023-05-08T00:48:52;15.10;95.50
292;DHT22;23311;48.776;9.162;2023-05-08T00:51:21;15.10;95.50
292;DHT22;23311;48.776;9.162;2023-05-08T00:53:49;15.10;95.50
292;DHT22;23311;48.776;9.162;2023-05-08T00:56:19;15.10;95.50
292;DHT22;23311;48.776;9.162;2023-05-08T00:58:49;15.10;95.50
292;DHT22;23311;48.776;9.162;2023-05-08T01:01:17;15.10;95.50
292;DHT22;23311;48.776;9.162;2023-05-08T01:03:45;15.10;95.50
292;DHT22;23311;48.776;9.162;2023-05-08T01:06:14;15.00;95.50
292;DHT22;23311;48.776;9.162;2023-05-08T01:08:43;15.00;95.50
292;DHT22;23311;48.776;9.162;2023-05-08T01:11:16;15.00;95.50
292;DHT22;23311;48.776;9.162;2023-05-08T01:13:54;15.00;95.50
292;DHT22;23311;48.776;9.162;2023-05-08T01:16:31;15.00;95.50
292;DHT22;23311;48.776;9.162;2023-05-08T01:19:12;14.90;95.50
292;DHT22;23311;48.776;9.162;2023-05-08T01:21:50;15.00;95.50
292;DHT22;23311;48.776;9.162;2023-05-08T01:24:45;14.90;95.50
292;DHT22;23311;48.776;9.162;2023-05-08T01:31:02;14.90;95.50
292;DHT22;23311;48.776;9.162;2023-05-08T01:33:37;14.90;95.50
292;DHT22;23311;48.776;9.162;2023-05-08T01:36:19;14.90;95.50
292;DHT22;23311;48.776;9.162;2023-05-08T01:38:55;14.90;95.50
292;DHT22;23311;48.776;9.162;2023-05-08T01:41:29;14.90;95.50
292;DHT22;23311;48.776;9.162;2023-05-08T01:44:08;14.90;95.50
292;DHT22;23311;48.776;9.162;2023-05-08T01:46:37;14.90;95.50
292;DHT22;23311;48.776;9.162;2023-05-08T01:49:08;14.90;95.50
292;DHT22;23311;48.776;9.162;2023-05-08T01:51:40;14.90;95.50
292;DHT22;23311;48.776;9.162;2023-05-08T01:54:13;14.90;95.50
292;DHT22;23311;48.776;9.162;2023-05-08T01:56:43;14.90;95.50
292;DHT22;23311;48.776;9.162;2023-05-08T01:59:16;14.90;95.50
292;DHT22;23311;48.776;9.162;2023-05-08T02:01:46;14.90;95.50
292;DHT22;23311;48.776;9.162;2023-05-08T02:04:16;14.90;95.50
292;DHT22;23311;48.776;9.162;2023-05-08T02:06:44;14.90;95.50
292;DHT22;23311;48.776;9.162;2023-05-08T02:09:13;14.90;95.50
292;DHT22;23311;48.776;9.162;2023-05-08T02:11:43;14.90;95.50
292;DHT22;23311;48.776;9.162;2023-05-08T02:14:13;14.90;95.50
292;DHT22;23311;48.776;9.162;2023-05-08T02:16:42;14.90;95.50
292;DHT22;23311;48.776;9.162;2023-05-08T02:19:13;14.80;95.50
292;DHT22;23311;48.776;9.162;2023-05-08T02:21:43;14.80;95.50
292;DHT22;23311;48.776;9.162;2023-05-08T02:24:12;14.80;95.50
292;DHT22;23311;48.776;9.162;2023-05-08T02:26:41;14.80;95.50
292;DHT22;23311;48.776;9.162;2023-05-08T02:29:10;14.90;95.50
292;DHT22;23311;48.776;9.162;2023-05-08T02:31:40;14.90;95.50
292;DHT22;23311;48.776;9.162;2023-05-08T02:34:09;14.80;95.50
292;DHT22;23311;48.776;9.162;2023-05-08T02:36:38;14.90;95.50
292;DHT22;23311;48.776;9.162;2023-05-08T02:39:10;14.90;95.50
292;DHT22;23311;48.776;9.162;2023-05-08T02:41:40;14.90;95.50
292;DHT22;23311;48.776;9.162;2023-05-08T02:44:09;14.90;95.50
292;DHT22;23311;48.776;9.162;2023-05-08T02:46:43;14.90;95.50
292;DHT22;23311;48.776;9.162;2023-05-08T02:49:23;14.90;95.50
292;DHT22;23311;48.776;9.162;2023-05-08T02:51:59;15.00;95.50
292;DHT22;23311;48.776;9.162;2023-05-08T02:54:35;15.00;95.50
292;DHT22;23311;48.776;9.162;2023-05-08T02:57:09;15.00;95.50
292;DHT22;23311;48.776;9.162;2023-05-08T02:59:44;15.00;95.50
292;DHT22;23311;48.776;9.162;2023-05-08T03:02:15;15.00;95.50
292;DHT22;23311;48.776;9.162;2023-05-08T03:04:46;15.00;95.50
292;DHT22;23311;48.776;9.162;2023-05-08T03:07:18;15.00;95.50
292;DHT22;23311;48.776;9.162;2023-05-08T03:09:56;15.00;95.50
292;DHT22;23311;48.776;9.162;2023-05-08T03:12:27;14.90;95.50
292;DHT22;23311;48.776;9.162;2023-05-08T03:15:02;14.90;95.50
292;DHT22;23311;48.776;9.162;2023-05-08T03:17:32;14.90;95.50
292;DHT22;23311;48.776;9.162;2023-05-08T03:20:04;14.90;95.50
292;DHT22;23311;48.776;9.162;2023-05-08T03:22:35;14.80;95.50
292;DHT22;23311;48.776;9.162;2023-05-08T03:25:07;14.80;95.50
292;DHT22;23311;48.776;9.162;2023-05-08T03:27:36;14.90;95.50
292;DHT22;23311;48.776;9.162;2023-05-08T03:30:06;14.90;95.50
292;DHT22;23311;48.776;9.162;2023-05-08T03:32:36;14.90;95.50
292;DHT22;23311;48.776;9.162;2023-05-08T03:35:06;14.90;95.50
292;DHT22;23311;48.776;9.162;2023-05-08T03:37:36;14.90;95.50
292;DHT22;23311;48.776;9.162;2023-05-08T03:40:07;14.90;95.50
292;DHT22;23311;48.776;9.162;2023-05-08T03:42:36;14.90;95.50
292;DHT22;23311;48.776;9.162;2023-05-08T03:45:06;14.90;95.50
292;DHT22;23311;48.776;9.162;2023-05-08T03:47:36;14.90;95.50
292;DHT22;23311;48.776;9.162;2023-05-08T03:50:07;14.90;95.50
292;DHT22;23311;48.776;9.162;2023-05-08T03:52:37;14.90;95.50
292;DHT22;23311;48.776;9.162;2023-05-08T03:55:07;14.90;95.50
292;DHT22;23311;48.776;9.162;2023-05-08T03:57:41;14.90;95.50
292;DHT22;23311;48.776;9.162;2023-05-08T04:00:17;14.80;95.50
292;DHT22;23311;48.776;9.162;2023-05-08T04:02:51;14.80;95.50
292;DHT22;23311;48.776;9.162;2023-05-08T04:05:27;14.80;95.50
292;DHT22;23311;48.776;9.162;2023-05-08T04:08:04;14.80;95.50
292;DHT22;23311;48.776;9.162;2023-05-08T04:10:41;14.90;95.50
292;DHT22;23311;48.776;9.162;2023-05-08T04:13:13;14.90;95.50
292;DHT22;23311;48.776;9.162;2023-05-08T04:15:45;14.90;95.50
292;DHT22;23311;48.776;9.162;2023-05-08T04:18:17;14.90;95.50
292;DHT22;23311;48.776;9.162;2023-05-08T04:20:47;14.90;95.50
292;DHT22;23311;48.776;9.162;2023-05-08T04:23:19;14.90;95.50
292;DHT22;23311;48.776;9.162;2023-05-08T04:25:51;14.90;95.50
292;DHT22;23311;48.776;9.162;2023-05-08T04:28:21;14.90;95.50
292;DHT22;23311;48.776;9.162;2023-05-08T04:30:50;14.90;95.50
292;DHT22;23311;48.776;9.162;2023-05-08T04:33:18;15.00;95.50
292;DHT22;23311;48.776;9.162;2023-05-08T04:35:46;15.00;95.50
292;DHT22;23311;48.776;9.162;2023-05-08T04:38:15;15.00;95.50
292;DHT22;23311;48.776;9.162;2023-05-08T04:40:43;15.10;95.50
292;DHT22;23311;48.776;9.162;2023-05-08T04:43:12;15.10;95.50
292;DHT22;23311;48.776;9.162;2023-05-08T04:45:40;15.10;95.50
292;DHT22;23311;48.776;9.162;2023-05-08T04:48:08;15.20;95.50
292;DHT22;23311;48.776;9.162;2023-05-08T04:50:36;15.20;95.50
292;DHT22;23311;48.776;9.162;2023-05-08T04:53:04;15.10;95.50
292;DHT22;23311;48.776;9.162;2023-05-08T04:55:33;15.10;95.50
292;DHT22;23311;48.776;9.162;2023-05-08T04:58:01;15.20;95.50
292;DHT22;23311;48.776;9.162;2023-05-08T05:00:30;15.20;95.50
292;DHT22;23311;48.776;9.162;2023-05-08T05:02:58;15.10;95.50
292;DHT22;23311;48.776;9.162;2023-05-08T05:05:26;15.10;95.50
292;DHT22;23311;48.776;9.162;2023-05-08T05:07:54;15.10;95.50
292;DHT22;23311;48.776;9.162;2023-05-08T05:10:23;15.10;95.50
292;DHT22;23311;48.776;9.162;2023-05-08T05:12:51;15.10;95.50
292;DHT22;23311;48.776;9.162;2023-05-08T05:15:19;15.10;95.50
292;DHT22;23311;48.776;9.162;2023-05-08T05:17:50;15.10;95.50
292;DHT22;23311;48.776;9.162;2023-05-08T05:20:18;15.10;95.50
292;DHT22;23311;48.776;9.162;2023-05-08T05:22:46;15.10;95.50
292;DHT22;23311;48.776;9.162;2023-05-08T05:25:14;15.10;95.50
292;DHT22;23311;48.776;9.162;2023-05-08T05:27:43;15.10;95.50
292;DHT22;23311;48.776;9.162;2023-05-08T05:30:11;15.20;95.50
292;DHT22;23311;48.776;9.162;2023-05-08T05:32:39;15.20;95.50
292;DHT22;23311;48.776;9.162;2023-05-08T05:35:09;15.10;95.50
292;DHT22;23311;48.776;9.162;2023-05-08T05:37:38;15.10;95.50
292;DHT22;23311;48.776;9.162;2023-05-08T05:40:07;15.10;95.50
292;DHT22;23311;48.776;9.162;2023-05-08T05:42:36;15.10;95.50
292;DHT22;23311;48.776;9.162;2023-05-08T05:45:05;15.10;95.50
292;DHT22;23311;48.776;9.162;2023-05-08T05:47:33;15.10;95.50
292;DHT22;23311;48.776;9.162;2023-05-08T05:50:01;15.20;95.50
292;DHT22;23311;48.776;9.162;2023-05-08T05:52:31;15.20;95.50
292;DHT22;23311;48.776;9.162;2023-05-08T05:54:59;15.20;95.50
292;DHT22;23311;48.776;9.162;2023-05-08T05:57:27;15.30;95.50
292;DHT22;23311;48.776;9.162;2023-05-08T05:59:55;15.30;95.50
292;DHT22;23311;48.776;9.162;2023-05-08T06:02:23;15.20;95.50
292;DHT22;23311;48.776;9.162;2023-05-08T06:04:51;15.20;95.50
292;DHT22;23311;48.776;9.162;2023-05-08T06:07:19;15.10;95.50
292;DHT22;23311;48.776;9.162;2023-05-08T06:09:49;15.20;95.50
292;DHT22;23311;48.776;9.162;2023-05-08T06:12:18;15.30;95.50
292;DHT22;23311;48.776;9.162;2023-05-08T06:14:47;15.20;95.50
292;DHT22;23311;48.776;9.162;2023-05-08T06:17:17;15.20;95.50
292;DHT22;23311;48.776;9.162;2023-05-08T06:19:45;15.30;95.50
292;DHT22;23311;48.776;9.162;2023-05-08T06:22:16;15.30;95.50
292;DHT22;23311;48.776;9.162;2023-05-08T06:24:44;15.30;95.50
292;DHT22;23311;48.776;9.162;2023-05-08T06:27:14;15.30;95.50
292;DHT22;23311;48.776;9.162;2023-05-08T06:29:42;15.30;95.50
292;DHT22;23311;48.776;9.162;2023-05-08T06:32:10;15.30;95.50
292;DHT22;23311;48.776;9.162;2023-05-08T06:34:38;15.40;95.50
292;DHT22;23311;48.776;9.162;2023-05-08T06:37:06;15.50;95.50
292;DHT22;23311;48.776;9.162;2023-05-08T06:39:34;15.50;95.50
292;DHT22;23311;48.776;9.162;2023-05-08T06:42:02;15.40;95.50
292;DHT22;23311;48.776;9.162;2023-05-08T06:44:35;15.40;95.50
292;DHT22;23311;48.776;9.162;2023-05-08T06:47:03;15.30;95.50
292;DHT22;23311;48.776;9.162;2023-05-08T06:49:31;15.30;95.50
292;DHT22;23311;48.776;9.162;2023-05-08T06:51:59;15.40;95.50
292;DHT22;23311;48.776;9.162;2023-05-08T06:54:27;15.40;95.50
292;DHT22;23311;48.776;9.162;2023-05-08T06:56:55;15.40;95.50
292;DHT22;23311;48.776;9.162;2023-05-08T06:59:23;15.40;95.50
292;DHT22;23311;48.776;9.162;2023-05-08T07:01:53;15.40;95.50
292;DHT22;23311;48.776;9.162;2023-05-08T07:04:21;15.50;95.50
292;DHT22;23311;48.776;9.162;2023-05-08T07:06:49;15.60;95.50
292;DHT22;23311;48.776;9.162;2023-05-08T07:09:17;15.60;95.50
292;DHT22;23311;48.776;9.162;2023-05-08T07:11:45;15.60;95.50
292;DHT22;23311;48.776;9.162;2023-05-08T07:14:15;15.50;95.50
292;DHT22;23311;48.776;9.162;2023-05-08T07:16:43;15.50;95.50
292;DHT22;23311;48.776;9.162;2023-05-08T07:19:12;15.50;95.50
292;DHT22;23311;48.776;9.162;2023-05-08T07:21:40;15.50;95.50
292;DHT22;23311;48.776;9.162;2023-05-08T07:24:08;15.60;95.50
292;DHT22;23311;48.776;9.162;2023-05-08T07:26:36;15.60;95.50
292;DHT22;23311;48.776;9.162;2023-05-08T07:29:04;15.60;95.50
292;DHT22;23311;48.776;9.162;2023-05-08T07:31:33;15.60;95.50
292;DHT22;23311;48.776;9.162;2023-05-08T07:34:02;15.60;95.50
292;DHT22;23311;48.776;9.162;2023-05-08T07:36:31;15.70;95.50
292;DHT22;23311;48.776;9.162;2023-05-08T07:38:59;15.70;95.50
292;DHT22;23311;48.776;9.162;2023-05-08T07:41:27;15.70;95.50
292;DHT22;23311;48.776;9.162;2023-05-08T07:43:56;15.80;95.50
292;DHT22;23311;48.776;9.162;2023-05-08T07:46:23;15.90;95.50
292;DHT22;23311;48.776;9.162;2023-05-08T07:48:52;16.00;95.50
292;DHT22;23311;48.776;9.162;2023-05-08T07:51:20;16.00;95.50
292;DHT22;23311;48.776;9.162;2023-05-08T07:53:49;15.90;95.50
292;DHT22;23311;48.776;9.162;2023-05-08T07:56:17;15.90;95.50
292;DHT22;23311;48.776;9.162;2023-05-08T07:58:45;16.00;95.50
292;DHT22;23311;48.776;9.162;2023-05-08T08:01:13;16.10;95.50
292;DHT22;23311;48.776;9.162;2023-05-08T08:03:43;16.00;95.50
292;DHT22;23311;48.776;9.162;2023-05-08T08:06:12;16.20;95.50
292;DHT22;23311;48.776;9.162;2023-05-08T08:08:40;16.40;95.50
292;DHT22;23311;48.776;9.162;2023-05-08T08:11:10;16.40;95.50
292;DHT22;23311;48.776;9.162;2023-05-08T08:13:38;16.60;95.50
292;DHT22;23311;48.776;9.162;2023-05-08T08:16:06;16.60;95.50
292;DHT22;23311;48.776;9.162;2023-05-08T08:18:34;16.60;95.50
292;DHT22;23311;48.776;9.162;2023-05-08T08:21:06;16.50;95.50
292;DHT22;23311;48.776;9.162;2023-05-08T08:23:34;16.40;95.50
292;DHT22;23311;48.776;9.162;2023-05-08T08:26:02;16.40;95.50
292;DHT22;23311;48.776;9.162;2023-05-08T08:28:32;16.40;95.50
292;DHT22;23311;48.776;9.162;2023-05-08T08:31:00;16.60;95.50
292;DHT22;23311;48.776;9.162;2023-05-08T08:33:28;16.60;95.50
292;DHT22;23311;48.776;9.162;2023-05-08T08:35:56;16.50;95.50
292;DHT22;23311;48.776;9.162;2023-05-08T08:38:24;16.50;95.50
292;DHT22;23311;48.776;9.162;2023-05-08T08:40:52;16.40;95.50
292;DHT22;23311;48.776;9.162;2023-05-08T08:43:21;16.60;95.50
292;DHT22;23311;48.776;9.162;2023-05-08T08:45:50;16.80;95.50
292;DHT22;23311;48.776;9.162;2023-05-08T08:48:19;17.10;95.50
292;DHT22;23311;48.776;9.162;2023-05-08T08:50:50;17.10;95.50
292;DHT22;23311;48.776;9.162;2023-05-08T08:53:23;17.30;95.50
292;DHT22;23311;48.776;9.162;2023-05-08T08:55:54;17.40;95.50
292;DHT22;23311;48.776;9.162;2023-05-08T08:58:30;17.40;95.50
292;DHT22;23311;48.776;9.162;2023-05-08T09:01:01;17.50;95.50
292;DHT22;23311;48.776;9.162;2023-05-08T09:03:30;17.50;95.50
292;DHT22;23311;48.776;9.162;2023-05-08T09:05:58;17.50;95.50
292;DHT22;23311;48.776;9.162;2023-05-08T09:08:27;17.50;95.50
292;DHT22;23311;48.776;9.162;2023-05-08T09:10:56;17.40;95.50
292;DHT22;23311;48.776;9.162;2023-05-08T09:13:25;17.50;95.50
292;DHT22;23311;48.776;9.162;2023-05-08T09:15:54;17.20;95.50
292;DHT22;23311;48.776;9.162;2023-05-08T09:18:23;16.90;95.50
292;DHT22;23311;48.776;9.162;2023-05-08T09:20:52;16.80;95.50
292;DHT22;23311;48.776;9.162;2023-05-08T09:23:20;16.60;95.50
292;DHT22;23311;48.776;9.162;2023-05-08T09:25:49;16.50;95.50
292;DHT22;23311;48.776;9.162;2023-05-08T09:28:18;16.50;95.50
292;DHT22;23311;48.776;9.162;2023-05-08T09:30:50;16.60;95.50
292;DHT22;23311;48.776;9.162;2023-05-08T09:33:20;16.70;95.50
292;DHT22;23311;48.776;9.162;2023-05-08T09:35:50;17.00;95.50
292;DHT22;23311;48.776;9.162;2023-05-08T09:38:31;17.30;95.50
292;DHT22;23311;48.776;9.162;2023-05-08T09:41:07;17.60;95.50
292;DHT22;23311;48.776;9.162;2023-05-08T09:43:35;18.00;95.50
292;DHT22;23311;48.776;9.162;2023-05-08T09:46:23;18.10;95.50
292;DHT22;23311;48.776;9.162;2023-05-08T09:48:53;18.50;95.50
292;DHT22;23311;48.776;9.162;2023-05-08T09:51:23;18.80;95.50
292;DHT22;23311;48.776;9.162;2023-05-08T09:53:52;19.20;95.50
292;DHT22;23311;48.776;9.162;2023-05-08T09:56:34;19.50;95.50
292;DHT22;23311;48.776;9.162;2023-05-08T09:59:04;19.80;95.50
292;DHT22;23311;48.776;9.162;2023-05-08T10:01:34;19.90;95.50
292;DHT22;23311;48.776;9.162;2023-05-08T10:04:03;20.00;95.50
292;DHT22;23311;48.776;9.162;2023-05-08T10:06:33;20.10;95.50
292;DHT22;23311;48.776;9.162;2023-05-08T10:09:06;20.50;95.50
292;DHT22;23311;48.776;9.162;2023-05-08T10:11:35;20.60;95.50
292;DHT22;23311;48.776;9.162;2023-05-08T10:14:03;20.50;95.50
292;DHT22;23311;48.776;9.162;2023-05-08T10:16:37;20.20;95.50
292;DHT22;23311;48.776;9.162;2023-05-08T10:19:12;20.40;95.50
292;DHT22;23311;48.776;9.162;2023-05-08T10:21:45;20.30;95.50
292;DHT22;23311;48.776;9.162;2023-05-08T10:24:15;20.50;95.50
292;DHT22;23311;48.776;9.162;2023-05-08T10:26:51;20.10;95.50
292;DHT22;23311;48.776;9.162;2023-05-08T10:29:40;19.80;95.50
292;DHT22;23311;48.776;9.162;2023-05-08T10:32:09;19.60;95.50
292;DHT22;23311;48.776;9.162;2023-05-08T10:34:40;19.70;95.50
292;DHT22;23311;48.776;9.162;2023-05-08T10:37:11;19.50;95.50
292;DHT22;23311;48.776;9.162;2023-05-08T10:39:40;19.30;95.50
292;DHT22;23311;48.776;9.162;2023-05-08T10:42:11;19.30;95.50
292;DHT22;23311;48.776;9.162;2023-05-08T10:44:40;19.30;95.50
292;DHT22;23311;48.776;9.162;2023-05-08T10:47:13;19.30;95.50
292;DHT22;23311;48.776;9.162;2023-05-08T10:49:48;19.30;95.50
292;DHT22;23311;48.776;9.162;2023-05-08T10:52:23;19.20;95.50
292;DHT22;23311;48.776;9.162;2023-05-08T10:55:18;19.40;95.50
292;DHT22;23311;48.776;9.162;2023-05-08T10:58:12;19.40;95.50
292;DHT22;23311;48.776;9.162;2023-05-08T11:01:09;19.30;95.50
292;DHT22;23311;48.776;9.162;2023-05-08T11:03:39;19.40;95.50
292;DHT22;23311;48.776;9.162;2023-05-08T11:06:09;19.50;95.50
292;DHT22;23311;48.776;9.162;2023-05-08T11:08:49;19.70;95.50
292;DHT22;23311;48.776;9.162;2023-05-08T11:11:24;20.20;95.50
292;DHT22;23311;48.776;9.162;2023-05-08T11:13:57;20.60;95.50
292;DHT22;23311;48.776;9.162;2023-05-08T11:19:32;22.00;95.50
292;DHT22;23311;48.776;9.162;2023-05-08T11:22:21;22.50;95.50
292;DHT22;23311;48.776;9.162;2023-05-08T11:24:54;23.00;95.50
292;DHT22;23311;48.776;9.162;2023-05-08T11:30:36;24.40;91.30
292;DHT22;23311;48.776;9.162;2023-05-08T11:33:14;25.10;88.70
292;DHT22;23311;48.776;9.162;2023-05-08T11:35:47;24.50;88.30
292;DHT22;23311;48.776;9.162;2023-05-08T11:38:18;25.20;87.40
292;DHT22;23311;48.776;9.162;2023-05-08T11:40:53;25.50;85.80
292;DHT22;23311;48.776;9.162;2023-05-08T11:46:14;25.70;83.40
292;DHT22;23311;48.776;9.162;2023-05-08T11:48:43;25.60;85.40
292;DHT22;23311;48.776;9.162;2023-05-08T11:51:11;25.00;86.20
292;DHT22;23311;48.776;9.162;2023-05-08T11:53:40;24.40;88.60
292;DHT22;23311;48.776;9.162;2023-05-08T11:56:12;23.80;90.60
292;DHT22;23311;48.776;9.162;2023-05-08T11:58:40;24.00;89.40
292;DHT22;23311;48.776;9.162;2023-05-08T12:01:08;23.30;90.40
292;DHT22;23311;48.776;9.162;2023-05-08T12:03:36;23.00;91.10
292;DHT22;23311;48.776;9.162;2023-05-08T12:06:05;23.30;90.60
292;DHT22;23311;48.776;9.162;2023-05-08T12:08:38;23.90;89.30
292;DHT22;23311;48.776;9.162;2023-05-08T12:11:06;23.70;89.10
292;DHT22;23311;48.776;9.162;2023-05-08T12:13:35;23.90;89.00
292;DHT22;23311;48.776;9.162;2023-05-08T12:16:04;24.80;87.40
292;DHT22;23311;48.776;9.162;2023-05-08T12:18:32;24.80;86.40
292;DHT22;23311;48.776;9.162;2023-05-08T12:21:00;24.40;87.70
292;DHT22;23311;48.776;9.162;2023-05-08T12:23:28;24.70;87.00
292;DHT22;23311;48.776;9.162;2023-05-08T12:25:58;25.60;84.50
292;DHT22;23311;48.776;9.162;2023-05-08T12:28:26;25.20;83.90
292;DHT22;23311;48.776;9.162;2023-05-08T12:30:56;26.00;83.90
292;DHT22;23311;48.776;9.162;2023-05-08T12:33:24;27.00;81.00
292;DHT22;23311;48.776;9.162;2023-05-08T12:35:53;27.50;79.40
292;DHT22;23311;48.776;9.162;2023-05-08T12:38:25;27.40;78.20
292;DHT22;23311;48.776;9.162;2023-05-08T12:40:53;26.40;81.20
292;DHT22;23311;48.776;9.162;2023-05-08T12:43:30;26.00;81.60
292;DHT22;23311;48.776;9.162;2023-05-08T12:46:00;25.10;84.50
292;DHT22;23311;48.776;9.162;2023-05-08T12:48:29;24.50;86.30
292;DHT22;23311;48.776;9.162;2023-05-08T12:51:02;24.10;86.90
292;DHT22;23311;48.776;9.162;2023-05-08T12:53:31;23.90;86.30
292;DHT22;23311;48.776;9.162;2023-05-08T12:56:01;24.00;85.70
292;DHT22;23311;48.776;9.162;2023-05-08T12:58:31;23.80;86.70
292;DHT22;23311;48.776;9.162;2023-05-08T13:01:06;24.10;87.10
292;DHT22;23311;48.776;9.162;2023-05-08T13:03:36;24.10;85.90
292;DHT22;23311;48.776;9.162;2023-05-08T13:06:05;24.30;86.10
292;DHT22;23311;48.776;9.162;2023-05-08T13:08:35;24.10;86.20
292;DHT22;23311;48.776;9.162;2023-05-08T13:11:04;23.70;87.50
292;DHT22;23311;48.776;9.162;2023-05-08T13:13:36;23.30;88.70
292;DHT22;23311;48.776;9.162;2023-05-08T13:16:06;23.00;89.80
292;DHT22;23311;48.776;9.162;2023-05-08T13:18:35;22.90;90.30
292;DHT22;23311;48.776;9.162;2023-05-08T13:21:03;22.70;91.40
292;DHT22;23311;48.776;9.162;2023-05-08T13:23:31;22.60;91.80
292;DHT22;23311;48.776;9.162;2023-05-08T13:25:59;22.70;91.30
292;DHT22;23311;48.776;9.162;2023-05-08T13:28:27;23.10;89.90
292;DHT22;23311;48.776;9.162;2023-05-08T13:30:55;22.80;90.10
292;DHT22;23311;48.776;9.162;2023-05-08T13:33:25;22.60;91.20
292;DHT22;23311;48.776;9.162;2023-05-08T13:35:53;21.80;95.30
292;DHT22;23311;48.776;9.162;2023-05-08T13:38:21;21.00;95.50
292;DHT22;23311;48.776;9.162;2023-05-08T13:40:49;20.80;95.50
292;DHT22;23311;48.776;9.162;2023-05-08T13:43:17;20.40;95.50
292;DHT22;23311;48.776;9.162;2023-05-08T13:45:46;20.30;95.50
292;DHT22;23311;48.776;9.162;2023-05-08T13:48:14;20.10;95.50
292;DHT22;23311;48.776;9.162;2023-05-08T13:50:43;20.20;95.50
292;DHT22;23311;48.776;9.162;2023-05-08T13:53:11;20.20;95.50
292;DHT22;23311;48.776;9.162;2023-05-08T13:55:39;19.90;95.50
292;DHT22;23311;48.776;9.162;2023-05-08T13:58:08;19.40;95.50
292;DHT22;23311;48.776;9.162;2023-05-08T14:00:36;19.10;95.50
292;DHT22;23311;48.776;9.162;2023-05-08T14:03:04;18.90;95.50
292;DHT22;23311;48.776;9.162;2023-05-08T14:05:33;19.00;95.50
292;DHT22;23311;48.776;9.162;2023-05-08T14:08:03;19.00;95.50
292;DHT22;23311;48.776;9.162;2023-05-08T14:10:31;19.10;95.50
292;DHT22;23311;48.776;9.162;2023-05-08T14:12:59;18.90;95.50
292;DHT22;23311;48.776;9.162;2023-05-08T14:15:27;18.90;95.50
292;DHT22;23311;48.776;9.162;2023-05-08T14:18:03;19.00;95.50
292;DHT22;23311;48.776;9.162;2023-05-08T14:20:31;19.10;95.50
292;DHT22;23311;48.776;9.162;2023-05-08T14:22:59;19.10;95.50
292;DHT22;23311;48.776;9.162;2023-05-08T14:25:29;18.90;95.50
292;DHT22;23311;48.776;9.162;2023-05-08T14:27:57;18.70;95.50
292;DHT22;23311;48.776;9.162;2023-05-08T14:30:25;18.50;95.50
292;DHT22;23311;48.776;9.162;2023-05-08T14:32:53;18.20;95.50
292;DHT22;23311;48.776;9.162;2023-05-08T14:35:21;18.00;95.50
292;DHT22;23311;48.776;9.162;2023-05-08T14:37:50;17.80;95.50
292;DHT22;23311;48.776;9.162;2023-05-08T14:40:18;17.60;95.50
292;DHT22;23311;48.776;9.162;2023-05-08T14:42:50;17.50;95.50
292;DHT22;23311;48.776;9.162;2023-05-08T14:45:18;17.50;95.50
292;DHT22;23311;48.776;9.162;2023-05-08T14:47:47;17.40;95.50
292;DHT22;23311;48.776;9.162;2023-05-08T14:50:18;17.40;95.50
292;DHT22;23311;48.776;9.162;2023-05-08T14:52:48;17.40;95.50
292;DHT22;23311;48.776;9.162;2023-05-08T14:55:19;17.30;95.50
292;DHT22;23311;48.776;9.162;2023-05-08T14:57:52;17.10;95.50
292;DHT22;23311;48.776;9.162;2023-05-08T15:00:20;17.00;95.50
292;DHT22;23311;48.776;9.162;2023-05-08T15:02:51;16.90;95.50
292;DHT22;23311;48.776;9.162;2023-05-08T15:05:21;17.00;95.50
292;DHT22;23311;48.776;9.162;2023-05-08T15:07:50;17.20;95.50
292;DHT22;23311;48.776;9.162;2023-05-08T15:10:19;17.40;95.50
292;DHT22;23311;48.776;9.162;2023-05-08T15:12:49;17.50;95.50
292;DHT22;23311;48.776;9.162;2023-05-08T15:15:18;17.50;95.50
292;DHT22;23311;48.776;9.162;2023-05-08T15:17:46;17.60;95.50
292;DHT22;23311;48.776;9.162;2023-05-08T15:20:14;17.70;95.50
292;DHT22;23311;48.776;9.162;2023-05-08T15:22:42;17.80;95.50
292;DHT22;23311;48.776;9.162;2023-05-08T15:25:11;17.80;95.50
292;DHT22;23311;48.776;9.162;2023-05-08T15:27:39;18.00;95.50
292;DHT22;23311;48.776;9.162;2023-05-08T15:30:08;18.00;95.50
292;DHT22;23311;48.776;9.162;2023-05-08T15:32:38;18.10;95.50
292;DHT22;23311;48.776;9.162;2023-05-08T15:35:07;18.30;95.50
292;DHT22;23311;48.776;9.162;2023-05-08T15:37:35;18.50;95.50
292;DHT22;23311;48.776;9.162;2023-05-08T15:40:05;18.70;95.50
292;DHT22;23311;48.776;9.162;2023-05-08T15:42:33;18.70;95.50
292;DHT22;23311;48.776;9.162;2023-05-08T15:45:01;18.90;95.50
292;DHT22;23311;48.776;9.162;2023-05-08T15:47:29;19.30;95.50
292;DHT22;23311;48.776;9.162;2023-05-08T15:49:59;19.90;95.50
292;DHT22;23311;48.776;9.162;2023-05-08T15:52:27;20.40;95.50
292;DHT22;23311;48.776;9.162;2023-05-08T15:54:55;20.70;95.50
292;DHT22;23311;48.776;9.162;2023-05-08T15:57:26;20.70;95.50
292;DHT22;23311;48.776;9.162;2023-05-08T15:59:56;20.70;95.50
292;DHT22;23311;48.776;9.162;2023-05-08T16:02:24;20.50;95.50
292;DHT22;23311;48.776;9.162;2023-05-08T16:04:53;20.40;95.50
292;DHT22;23311;48.776;9.162;2023-05-08T16:07:22;20.10;95.50
292;DHT22;23311;48.776;9.162;2023-05-08T16:09:50;20.10;95.50
292;DHT22;23311;48.776;9.162;2023-05-08T16:12:18;19.80;95.50
292;DHT22;23311;48.776;9.162;2023-05-08T16:14:46;19.90;95.50
292;DHT22;23311;48.776;9.162;2023-05-08T16:17:15;19.70;95.50
292;DHT22;23311;48.776;9.162;2023-05-08T16:19:43;19.60;95.50
292;DHT22;23311;48.776;9.162;2023-05-08T16:22:11;19.40;95.50
292;DHT22;23311;48.776;9.162;2023-05-08T16:24:40;19.50;95.50
292;DHT22;23311;48.776;9.162;2023-05-08T16:27:08;19.40;95.50
292;DHT22;23311;48.776;9.162;2023-05-08T16:29:38;19.20;95.50
292;DHT22;23311;48.776;9.162;2023-05-08T16:32:06;19.30;95.50
292;DHT22;23311;48.776;9.162;2023-05-08T16:34:34;19.30;95.50